createdAt,value
2022-08-26T00:00:19.821Z,11.45
2022-08-26T00:01:28.941Z,10.95
2022-08-26T00:02:31.283Z,11.73
2022-08-26T00:03:32.840Z,11.30
2022-08-26T00:04:34.498Z,11.75
2022-08-26T00:05:36.470Z,11.20
2022-08-26T00:06:39.079Z,11.63
2022-08-26T00:07:44.255Z,11.38
2022-08-26T00:08:45.795Z,11.32
2022-08-26T00:09:48.342Z,11.23
2022-08-26T00:10:51.635Z,11.20
2022-08-26T00:11:53.917Z,11.77
2022-08-26T00:12:55.402Z,11.93
2022-08-26T00:13:58.276Z,11.63
2022-08-26T00:14:59.778Z,11.20
2022-08-26T00:16:05.145Z,11.75
2022-08-26T00:17:06.659Z,11.10
2022-08-26T00:18:16.860Z,12.45
2022-08-26T00:19:24.099Z,12.27
2022-08-26T00:20:28.653Z,12.48
2022-08-26T00:21:30.252Z,12.10
2022-08-26T00:22:31.874Z,12.18
2022-08-26T00:23:33.549Z,11.52
2022-08-26T00:24:35.114Z,12.40
2022-08-26T00:25:37.559Z,11.45
2022-08-26T00:26:44.010Z,11.80
2022-08-26T00:27:50.015Z,11.10
2022-08-26T00:28:53.709Z,11.32
2022-08-26T00:29:55.233Z,11.02
2022-08-26T00:30:58.367Z,11.85
2022-08-26T00:32:01.212Z,11.68
2022-08-26T00:33:03.487Z,12.43
2022-08-26T00:34:07.167Z,11.90
2022-08-26T00:35:11.454Z,11.80
2022-08-26T00:36:12.944Z,12.20
2022-08-26T00:37:22.001Z,11.57
2022-08-26T00:38:24.101Z,12.13
2022-08-26T00:39:25.615Z,12.02
2022-08-26T00:40:29.627Z,12.15
2022-08-26T00:41:31.135Z,11.65
2022-08-26T00:42:32.646Z,12.27
2022-08-26T00:43:47.459Z,12.57
2022-08-26T00:44:51.460Z,12.20
2022-08-26T00:45:59.334Z,13.00
2022-08-26T00:47:05.825Z,12.60
2022-08-26T00:48:09.091Z,12.18
2022-08-26T00:49:15.673Z,12.70
2022-08-26T00:50:21.690Z,12.52
2022-08-26T00:51:29.870Z,11.77
2022-08-26T00:52:31.711Z,12.10
2022-08-26T00:53:41.401Z,12.00
2022-08-26T00:54:47.052Z,12.13
2022-08-26T00:55:54.913Z,12.80
2022-08-26T00:57:02.252Z,12.55
2022-08-26T00:58:03.943Z,12.32
2022-08-26T00:59:08.075Z,12.63
2022-08-26T01:00:15.007Z,12.50
2022-08-26T01:01:17.432Z,13.35
2022-08-26T01:02:21.536Z,12.73
2022-08-26T01:03:25.806Z,13.23
2022-08-26T01:04:29.053Z,12.57
2022-08-26T01:05:30.848Z,13.30
2022-08-26T01:06:32.483Z,13.23
2022-08-26T01:07:35.091Z,12.68
2022-08-26T01:08:36.636Z,12.85
2022-08-26T01:09:38.241Z,12.27
2022-08-26T01:10:42.024Z,13.75
2022-08-26T01:11:47.052Z,12.35
2022-08-26T01:12:53.674Z,13.20
2022-08-26T01:13:59.003Z,13.27
2022-08-26T01:15:00.680Z,12.98
2022-08-26T01:16:05.082Z,13.27
2022-08-26T01:17:08.119Z,12.88
2022-08-26T01:18:12.938Z,12.82
2022-08-26T01:19:20.345Z,12.77
2022-08-26T01:20:28.879Z,12.80
2022-08-26T01:21:35.959Z,13.13
2022-08-26T01:22:52.672Z,14.10
2022-08-26T01:23:57.655Z,13.10
2022-08-26T01:25:00.689Z,13.52
2022-08-26T01:26:09.256Z,13.68
2022-08-26T01:27:21.232Z,13.68
2022-08-26T01:28:27.702Z,13.82
2022-08-26T01:29:31.233Z,13.80
2022-08-26T01:30:34.131Z,13.95
2022-08-26T01:31:40.185Z,12.95
2022-08-26T01:32:42.812Z,13.40
2022-08-26T01:33:53.739Z,14.18
2022-08-26T01:34:55.267Z,13.07
2022-08-26T01:35:56.815Z,13.88
2022-08-26T01:37:04.802Z,13.48
2022-08-26T01:38:08.565Z,14.55
2022-08-26T01:39:10.929Z,13.93
2022-08-26T01:40:18.215Z,13.13
2022-08-26T01:41:27.462Z,13.20
2022-08-26T01:42:30.560Z,13.52
2022-08-26T01:43:33.838Z,12.80
2022-08-26T01:44:41.287Z,13.70
2022-08-26T01:45:44.476Z,13.82
2022-08-26T01:46:48.961Z,13.52
2022-08-26T01:47:56.630Z,14.32
2022-08-26T01:49:01.716Z,14.07
2022-08-26T01:50:08.998Z,14.68
2022-08-26T01:51:13.367Z,14.30
2022-08-26T01:52:21.752Z,14.30
2022-08-26T01:53:25.416Z,14.23
2022-08-26T01:54:27.119Z,13.73
2022-08-26T01:55:33.081Z,13.80
2022-08-26T01:56:36.533Z,13.80
2022-08-26T01:57:38.303Z,13.43
2022-08-26T01:58:42.843Z,14.13
2022-08-26T01:59:44.767Z,13.38
2022-08-26T02:00:46.909Z,13.70
2022-08-26T02:01:48.793Z,14.13
2022-08-26T02:02:54.468Z,14.35
2022-08-26T02:04:02.824Z,13.90
2022-08-26T02:05:07.048Z,13.30
2022-08-26T02:06:09.429Z,13.27
2022-08-26T02:07:12.242Z,13.63
2022-08-26T02:08:17.201Z,13.05
2022-08-26T02:09:27.507Z,14.02
2022-08-26T02:10:29.005Z,13.52
2022-08-26T02:11:31.018Z,13.27
2022-08-26T02:12:33.867Z,13.52
2022-08-26T02:13:39.971Z,13.43
2022-08-26T02:14:46.130Z,13.75
2022-08-26T02:15:48.429Z,13.25
2022-08-26T02:16:52.950Z,14.00
2022-08-26T02:17:55.398Z,13.40
2022-08-26T02:19:00.156Z,13.95
2022-08-26T02:20:02.950Z,13.98
2022-08-26T02:21:06.752Z,13.80
2022-08-26T02:22:12.845Z,13.98
2022-08-26T02:23:14.393Z,14.48
2022-08-26T02:24:18.773Z,14.32
2022-08-26T02:25:27.983Z,13.57
2022-08-26T02:26:29.460Z,14.00
2022-08-26T02:27:33.455Z,13.73
2022-08-26T02:28:40.626Z,14.68
2022-08-26T02:29:45.379Z,14.38
2022-08-26T02:30:47.224Z,14.68
2022-08-26T02:31:50.393Z,14.40
2022-08-26T02:32:52.313Z,14.15
2022-08-26T02:33:53.802Z,14.55
2022-08-26T02:34:55.289Z,14.27
2022-08-26T02:35:56.922Z,14.15
2022-08-26T02:36:59.814Z,13.75
2022-08-26T02:38:01.794Z,14.60
2022-08-26T02:39:11.658Z,14.00
2022-08-26T02:40:16.403Z,12.98
2022-08-26T02:41:19.327Z,14.02
2022-08-26T02:42:20.817Z,14.35
2022-08-26T02:43:31.194Z,13.90
2022-08-26T02:44:33.486Z,15.35
2022-08-26T02:45:35.406Z,14.60
2022-08-26T02:46:37.257Z,15.02
2022-08-26T02:47:38.950Z,14.43
2022-08-26T02:48:40.646Z,15.20
2022-08-26T02:49:44.261Z,15.02
2022-08-26T02:50:45.956Z,14.38
2022-08-26T02:51:47.719Z,14.15
2022-08-26T02:52:49.312Z,15.05
2022-08-26T02:53:51.776Z,15.45
2022-08-26T02:54:53.298Z,14.60
2022-08-26T02:55:54.996Z,14.50
2022-08-26T02:56:57.826Z,14.95
2022-08-26T02:58:00.220Z,14.50
2022-08-26T02:59:02.038Z,14.55
2022-08-26T03:00:06.342Z,14.23
2022-08-26T03:01:08.095Z,14.77
2022-08-26T03:02:09.762Z,15.20
2022-08-26T03:03:11.241Z,14.63
2022-08-26T03:04:14.195Z,14.43
2022-08-26T03:05:17.502Z,13.75
2022-08-26T03:06:19.062Z,14.38
2022-08-26T03:07:20.514Z,14.82
2022-08-26T03:08:22.906Z,15.10
2022-08-26T03:09:24.929Z,14.95
2022-08-26T03:10:26.532Z,15.30
2022-08-26T03:11:32.760Z,15.25
2022-08-26T03:12:36.363Z,14.98
2022-08-26T03:13:38.084Z,14.98
2022-08-26T03:14:40.178Z,14.77
2022-08-26T03:15:41.850Z,16.55
2022-08-26T03:16:44.429Z,15.02
2022-08-26T03:17:50.368Z,15.27
2022-08-26T03:18:52.599Z,15.48
2022-08-26T03:19:57.283Z,15.80
2022-08-26T03:20:59.049Z,16.48
2022-08-26T03:22:00.526Z,16.20
2022-08-26T03:23:02.039Z,16.38
2022-08-26T03:24:06.220Z,16.75
2022-08-26T03:25:11.385Z,17.52
2022-08-26T03:26:15.359Z,16.50
2022-08-26T03:27:17.998Z,16.73
2022-08-26T03:28:21.129Z,16.55
2022-08-26T03:29:23.515Z,16.38
2022-08-26T03:30:25.076Z,16.75
2022-08-26T03:31:28.518Z,16.50
2022-08-26T03:32:30.015Z,16.63
2022-08-26T03:33:31.730Z,15.93
2022-08-26T03:34:33.689Z,17.85
2022-08-26T03:35:35.377Z,16.40
2022-08-26T03:36:36.837Z,16.70
2022-08-26T03:37:39.017Z,17.00
2022-08-26T03:38:40.575Z,17.58
2022-08-26T03:39:42.196Z,17.58
2022-08-26T03:40:44.023Z,16.98
2022-08-26T03:41:45.610Z,17.25
2022-08-26T03:42:47.660Z,17.70
2022-08-26T03:43:51.258Z,17.50
2022-08-26T03:44:52.796Z,17.67
2022-08-26T03:45:55.081Z,16.98
2022-08-26T03:46:56.562Z,17.40
2022-08-26T03:47:58.428Z,17.50
2022-08-26T03:49:01.792Z,17.30
2022-08-26T03:50:03.889Z,18.38
2022-08-26T03:51:11.992Z,16.75
2022-08-26T03:52:15.443Z,18.33
2022-08-26T03:53:16.902Z,17.30
2022-08-26T03:54:22.058Z,18.95
2022-08-26T03:55:25.374Z,17.75
2022-08-26T03:56:28.879Z,16.80
2022-08-26T03:57:30.428Z,17.48
2022-08-26T03:58:32.336Z,17.95
2022-08-26T03:59:35.149Z,17.73
2022-08-26T04:00:38.557Z,17.75
2022-08-26T04:01:40.295Z,19.08
2022-08-26T04:02:45.022Z,16.83
2022-08-26T04:03:46.942Z,17.13
2022-08-26T04:04:48.453Z,19.55
2022-08-26T04:05:51.714Z,19.02
2022-08-26T04:06:57.296Z,21.02
2022-08-26T04:07:58.845Z,19.85
2022-08-26T04:09:03.412Z,19.45
2022-08-26T04:10:07.177Z,18.70
2022-08-26T04:11:08.675Z,19.10
2022-08-26T04:12:11.675Z,19.27
2022-08-26T04:13:13.167Z,18.48
2022-08-26T04:14:17.497Z,19.73
2022-08-26T04:15:21.023Z,20.25
2022-08-26T04:16:23.014Z,19.08
2022-08-26T04:17:27.523Z,18.90
2022-08-26T04:18:33.002Z,20.05
2022-08-26T04:19:38.711Z,20.25
2022-08-26T04:20:40.196Z,19.80
2022-08-26T04:21:42.269Z,19.23
2022-08-26T04:22:44.181Z,20.10
2022-08-26T04:23:47.567Z,18.80
2022-08-26T04:24:49.606Z,20.15
2022-08-26T04:25:51.502Z,20.25
2022-08-26T04:26:53.107Z,19.40
2022-08-26T04:27:54.559Z,20.00
2022-08-26T04:28:56.022Z,19.88
2022-08-26T04:29:57.746Z,19.58
2022-08-26T04:31:00.679Z,20.02
2022-08-26T04:32:02.562Z,19.00
2022-08-26T04:33:04.155Z,20.08
2022-08-26T04:34:15.072Z,20.65
2022-08-26T04:35:16.675Z,20.35
2022-08-26T04:36:20.201Z,19.42
2022-08-26T04:37:21.926Z,19.00
2022-08-26T04:38:24.109Z,18.55
2022-08-26T04:39:27.719Z,18.65
2022-08-26T04:40:29.477Z,18.95
2022-08-26T04:41:31.652Z,17.90
2022-08-26T04:42:33.220Z,17.10
2022-08-26T04:43:35.789Z,17.92
2022-08-26T04:44:37.292Z,18.13
2022-08-26T04:45:40.404Z,18.05
2022-08-26T04:46:43.957Z,18.20
2022-08-26T04:47:45.654Z,17.90
2022-08-26T04:48:47.307Z,16.15
2022-08-26T04:49:48.783Z,17.08
2022-08-26T04:50:50.340Z,16.80
2022-08-26T04:51:51.835Z,17.85
2022-08-26T04:52:53.700Z,17.42
2022-08-26T04:53:56.126Z,17.45
2022-08-26T04:54:57.783Z,17.45
2022-08-26T04:55:59.294Z,17.60
2022-08-26T04:57:00.848Z,17.90
2022-08-26T04:58:02.294Z,17.35
2022-08-26T04:59:06.499Z,18.50
2022-08-26T05:00:10.402Z,18.02
2022-08-26T05:01:12.638Z,18.25
2022-08-26T05:02:15.498Z,17.58
2022-08-26T05:03:17.921Z,18.35
2022-08-26T05:04:20.840Z,18.58
2022-08-26T05:05:22.413Z,18.65
2022-08-26T05:06:24.132Z,17.52
2022-08-26T05:07:26.163Z,18.00
2022-08-26T05:08:27.643Z,17.58
2022-08-26T05:09:29.119Z,16.73
2022-08-26T05:10:31.981Z,16.75
2022-08-26T05:11:33.517Z,16.77
2022-08-26T05:12:35.487Z,18.77
2022-08-26T05:13:37.090Z,18.67
2022-08-26T05:14:38.594Z,19.35
2022-08-26T05:15:40.117Z,19.17
2022-08-26T05:16:42.795Z,19.08
2022-08-26T05:17:45.611Z,18.92
2022-08-26T05:18:47.151Z,18.73
2022-08-26T05:19:48.922Z,18.48
2022-08-26T05:20:54.695Z,18.80
2022-08-26T05:21:56.471Z,17.13
2022-08-26T05:22:58.889Z,17.90
2022-08-26T05:24:01.640Z,18.48
2022-08-26T05:25:03.849Z,17.98
2022-08-26T05:26:08.192Z,17.45
2022-08-26T05:27:11.603Z,17.90
2022-08-26T05:28:15.553Z,17.70
2022-08-26T05:29:17.231Z,16.40
2022-08-26T05:30:19.936Z,16.45
2022-08-26T05:31:24.069Z,15.30
2022-08-26T05:32:25.662Z,15.18
2022-08-26T05:33:30.063Z,16.42
2022-08-26T05:34:31.528Z,15.45
2022-08-26T05:35:33.527Z,16.15
2022-08-26T05:36:36.086Z,16.10
2022-08-26T05:37:38.585Z,16.02
2022-08-26T05:38:40.070Z,16.75
2022-08-26T05:39:43.584Z,17.00
2022-08-26T05:40:53.189Z,16.73
2022-08-26T05:41:54.752Z,17.40
2022-08-26T05:42:56.249Z,16.38
2022-08-26T05:44:00.268Z,15.93
2022-08-26T05:45:01.816Z,16.10
2022-08-26T05:46:06.765Z,15.65
2022-08-26T05:47:08.314Z,16.27
2022-08-26T05:48:10.542Z,16.63
2022-08-26T05:49:14.716Z,15.80
2022-08-26T05:50:17.686Z,15.75
2022-08-26T05:51:23.975Z,15.77
2022-08-26T05:52:27.316Z,13.90
2022-08-26T05:53:29.690Z,14.80
2022-08-26T05:54:31.156Z,14.60
2022-08-26T05:55:32.697Z,15.50
2022-08-26T05:56:34.458Z,15.38
2022-08-26T05:57:40.399Z,16.10
2022-08-26T05:58:44.389Z,16.05
2022-08-26T05:59:47.784Z,14.13
2022-08-26T06:00:57.847Z,15.32
2022-08-26T06:01:59.474Z,14.65
2022-08-26T06:03:01.045Z,16.00
2022-08-26T06:04:03.434Z,14.65
2022-08-26T06:05:06.689Z,14.30
2022-08-26T06:06:12.316Z,13.93
2022-08-26T06:07:13.822Z,13.63
2022-08-26T06:08:15.340Z,13.68
2022-08-26T06:09:20.726Z,13.45
2022-08-26T06:10:32.234Z,14.25
2022-08-26T06:11:34.593Z,13.35
2022-08-26T06:12:36.067Z,12.70
2022-08-26T06:13:39.021Z,13.18
2022-08-26T06:14:40.481Z,12.70
2022-08-26T06:15:43.400Z,13.30
2022-08-26T06:16:45.737Z,11.75
2022-08-26T06:17:47.185Z,13.18
2022-08-26T06:18:52.128Z,12.32
2022-08-26T06:19:53.590Z,12.00
2022-08-26T06:20:57.866Z,12.65
2022-08-26T06:21:59.771Z,11.23
2022-08-26T06:23:02.224Z,11.23
2022-08-26T06:24:07.568Z,12.60
2022-08-26T06:25:09.888Z,12.18
2022-08-26T06:26:12.752Z,12.13
2022-08-26T06:27:15.342Z,12.63
2022-08-26T06:28:17.076Z,12.45
2022-08-26T06:29:24.133Z,12.68
2022-08-26T06:30:26.482Z,12.20
2022-08-26T06:31:29.078Z,14.07
2022-08-26T06:32:30.805Z,12.88
2022-08-26T06:33:32.334Z,12.63
2022-08-26T06:34:33.860Z,12.88
2022-08-26T06:35:40.002Z,13.38
2022-08-26T06:36:44.717Z,12.80
2022-08-26T06:37:47.514Z,12.43
2022-08-26T06:38:50.290Z,12.77
2022-08-26T06:39:51.801Z,12.80
2022-08-26T06:40:54.186Z,11.65
2022-08-26T06:41:55.675Z,11.77
2022-08-26T06:42:57.126Z,12.30
2022-08-26T06:43:58.733Z,12.63
2022-08-26T06:45:00.211Z,12.50
2022-08-26T06:46:04.808Z,12.38
2022-08-26T06:47:06.886Z,12.65
2022-08-26T06:48:08.377Z,13.35
2022-08-26T06:49:12.312Z,12.88
2022-08-26T06:50:13.780Z,13.70
2022-08-26T06:51:18.024Z,12.48
2022-08-26T06:52:24.300Z,12.45
2022-08-26T06:53:26.135Z,11.63
2022-08-26T06:54:27.980Z,12.02
2022-08-26T06:55:29.924Z,11.70
2022-08-26T06:56:34.518Z,11.50
2022-08-26T06:57:37.687Z,11.40
2022-08-26T06:58:42.501Z,12.35
2022-08-26T06:59:43.993Z,11.95
2022-08-26T07:00:47.319Z,11.57
2022-08-26T07:01:49.801Z,11.93
2022-08-26T07:02:51.496Z,12.52
2022-08-26T07:03:55.351Z,12.02
2022-08-26T07:04:58.721Z,12.45
2022-08-26T07:06:03.952Z,12.27
2022-08-26T07:07:06.777Z,12.52
2022-08-26T07:08:12.496Z,12.82
2022-08-26T07:09:14.048Z,12.20
2022-08-26T07:10:15.821Z,12.20
2022-08-26T07:11:18.433Z,12.45
2022-08-26T07:12:20.009Z,12.77
2022-08-26T07:13:29.867Z,11.25
2022-08-26T07:14:33.877Z,11.50
2022-08-26T07:15:40.826Z,11.18
2022-08-26T07:16:42.386Z,12.80
2022-08-26T07:17:44.114Z,11.73
2022-08-26T07:18:46.162Z,11.13
2022-08-26T07:19:48.003Z,11.65
2022-08-26T07:20:50.781Z,11.60
2022-08-26T07:21:52.360Z,11.98
2022-08-26T07:22:57.110Z,12.10
2022-08-26T07:24:00.660Z,11.50
2022-08-26T07:25:03.865Z,12.02
2022-08-26T07:26:08.410Z,12.30
2022-08-26T07:27:12.202Z,12.38
2022-08-26T07:28:13.683Z,12.57
2022-08-26T07:29:15.173Z,12.50
2022-08-26T07:30:18.827Z,12.38
2022-08-26T07:31:22.777Z,12.13
2022-08-26T07:32:24.416Z,12.43
2022-08-26T07:33:25.905Z,12.57
2022-08-26T07:34:28.128Z,13.07
2022-08-26T07:35:29.646Z,12.15
2022-08-26T07:36:31.153Z,12.10
2022-08-26T07:37:35.471Z,11.82
2022-08-26T07:38:41.796Z,11.48
2022-08-26T07:39:45.508Z,11.77
2022-08-26T07:40:47.013Z,11.32
2022-08-26T07:41:48.469Z,11.43
2022-08-26T07:42:50.619Z,11.95
2022-08-26T07:43:52.490Z,12.10
2022-08-26T07:44:54.531Z,12.70
2022-08-26T07:45:56.645Z,12.73
2022-08-26T07:46:58.253Z,12.73
2022-08-26T07:47:59.884Z,12.27
2022-08-26T07:49:05.898Z,11.88
2022-08-26T07:50:09.128Z,11.82
2022-08-26T07:51:11.285Z,11.93
2022-08-26T07:52:12.782Z,11.90
2022-08-26T07:53:15.110Z,12.23
2022-08-26T07:54:20.075Z,12.10
2022-08-26T07:55:27.574Z,12.55
2022-08-26T07:56:29.301Z,12.52
2022-08-26T07:57:30.763Z,12.15
2022-08-26T07:58:32.299Z,12.00
2022-08-26T07:59:33.816Z,12.48
2022-08-26T08:00:35.354Z,12.45
2022-08-26T08:01:37.105Z,12.13
2022-08-26T08:02:40.549Z,11.75
2022-08-26T08:03:42.076Z,12.63
2022-08-26T08:04:43.618Z,12.30
2022-08-26T08:05:46.342Z,13.57
2022-08-26T08:06:48.427Z,12.90
2022-08-26T08:07:49.930Z,12.75
2022-08-26T08:08:55.880Z,12.48
2022-08-26T08:09:57.379Z,12.27
2022-08-26T08:11:00.177Z,12.48
2022-08-26T08:12:01.760Z,13.18
2022-08-26T08:13:05.316Z,12.88
2022-08-26T08:14:08.532Z,12.27
2022-08-26T08:15:11.820Z,12.20
2022-08-26T08:16:14.158Z,13.15
2022-08-26T08:17:16.384Z,12.68
2022-08-26T08:18:18.002Z,13.70
2022-08-26T08:19:22.432Z,12.45
2022-08-26T08:20:24.850Z,13.00
2022-08-26T08:21:27.422Z,12.73
2022-08-26T08:22:30.442Z,11.68
2022-08-26T08:23:32.505Z,11.85
2022-08-26T08:24:34.938Z,11.48
2022-08-26T08:25:36.419Z,12.13
2022-08-26T08:26:39.287Z,12.15
2022-08-26T08:27:42.509Z,12.50
2022-08-26T08:28:44.407Z,12.45
2022-08-26T08:29:49.423Z,12.52
2022-08-26T08:30:50.962Z,12.38
2022-08-26T08:31:56.676Z,12.57
2022-08-26T08:32:59.764Z,11.98
2022-08-26T08:34:02.014Z,11.65
2022-08-26T08:35:11.536Z,10.88
2022-08-26T08:36:13.465Z,11.85
2022-08-26T08:37:20.080Z,10.70
2022-08-26T08:38:22.471Z,10.52
2022-08-26T08:39:25.980Z,11.77
2022-08-26T08:40:27.879Z,11.63
2022-08-26T08:41:53.521Z,11.32
2022-08-26T08:43:01.163Z,11.45
2022-08-26T08:44:08.566Z,11.13
2022-08-26T08:45:15.018Z,11.00
2022-08-26T08:46:18.348Z,9.68
2022-08-26T08:47:28.943Z,10.23
2022-08-26T08:48:33.272Z,9.20
2022-08-26T08:49:34.876Z,9.25
2022-08-26T08:50:42.884Z,9.45
2022-08-26T08:51:51.833Z,10.75
2022-08-26T08:53:02.830Z,10.13
2022-08-26T08:54:08.632Z,9.73
2022-08-26T08:55:17.408Z,8.90
2022-08-26T08:56:26.596Z,9.88
2022-08-26T08:57:42.765Z,9.55
2022-08-26T08:58:57.048Z,9.82
2022-08-26T09:00:04.476Z,9.38
2022-08-26T09:01:12.063Z,9.52
2022-08-26T09:02:23.655Z,9.25
2022-08-26T09:03:36.515Z,9.20
2022-08-26T09:05:02.519Z,9.35
2022-08-26T09:06:06.951Z,14.30
2022-08-26T09:07:12.068Z,10.25
2022-08-26T09:08:19.846Z,11.75
2022-08-26T09:09:26.588Z,22.70
2022-08-26T09:10:35.178Z,11.40
2022-08-26T09:11:37.639Z,11.18
2022-08-26T09:12:40.440Z,11.52
2022-08-26T09:13:47.469Z,11.20
2022-08-26T09:14:51.125Z,10.55
2022-08-26T09:16:03.186Z,10.32
2022-08-26T09:17:12.370Z,10.60
2022-08-26T09:18:25.523Z,11.10
2022-08-26T09:19:32.359Z,10.98
2022-08-26T09:20:43.612Z,10.40
2022-08-26T09:21:55.108Z,10.40
2022-08-26T09:24:00.222Z,9.02
2022-08-26T09:25:02.397Z,9.82
2022-08-26T09:26:17.802Z,8.82
2022-08-26T09:27:43.611Z,8.43
2022-08-26T09:28:48.395Z,8.52
2022-08-26T09:29:50.379Z,8.65
2022-08-26T09:31:00.570Z,8.90
2022-08-26T09:32:18.533Z,8.55
2022-08-26T09:33:27.397Z,8.60
2022-08-26T09:34:29.305Z,8.63
2022-08-26T09:35:36.476Z,9.60
2022-08-26T09:36:41.643Z,9.02
2022-08-26T09:38:53.268Z,8.75
2022-08-26T09:40:10.946Z,8.93
2022-08-26T09:41:27.904Z,9.68
2022-08-26T09:42:29.547Z,9.20
2022-08-26T09:43:32.634Z,9.82
2022-08-26T09:44:35.458Z,10.88
2022-08-26T09:45:38.079Z,9.82
2022-08-26T09:46:45.611Z,9.90
2022-08-26T09:47:54.262Z,9.82
2022-08-26T09:48:56.307Z,9.30
2022-08-26T09:50:02.007Z,8.93
2022-08-26T09:51:06.058Z,9.60
2022-08-26T09:52:19.570Z,11.05
2022-08-26T09:53:25.203Z,9.88
2022-08-26T09:54:32.490Z,10.30
2022-08-26T09:55:36.158Z,8.63
2022-08-26T09:56:39.300Z,9.00
2022-08-26T09:57:48.957Z,8.65
2022-08-26T09:58:52.290Z,9.52
2022-08-26T09:59:54.397Z,10.00
2022-08-26T10:00:57.865Z,9.20
2022-08-26T10:02:17.229Z,9.73
2022-08-26T10:03:25.141Z,9.02
2022-08-26T10:04:27.002Z,9.80
2022-08-26T10:05:31.830Z,10.73
2022-08-26T10:06:38.880Z,9.57
2022-08-26T10:07:45.213Z,9.25
2022-08-26T10:08:48.979Z,9.52
2022-08-26T10:09:52.515Z,9.23
2022-08-26T10:10:56.433Z,8.85
2022-08-26T10:12:02.013Z,9.70
2022-08-26T10:13:07.732Z,8.95
2022-08-26T10:14:15.554Z,9.90
2022-08-26T10:15:19.486Z,9.20
2022-08-26T10:16:27.504Z,8.75
2022-08-26T10:17:35.877Z,8.85
2022-08-26T10:18:42.218Z,9.70
2022-08-26T10:19:56.855Z,8.70
2022-08-26T10:21:03.938Z,9.10
2022-08-26T10:22:13.839Z,9.32
2022-08-26T10:23:18.617Z,9.50
2022-08-26T10:24:25.702Z,9.95
2022-08-26T10:25:33.786Z,10.02
2022-08-26T10:26:41.162Z,9.70
2022-08-26T10:27:51.305Z,7.78
2022-08-26T10:29:00.155Z,5.25
2022-08-26T10:30:07.458Z,3.55
2022-08-26T10:31:20.008Z,5.00
2022-08-26T10:32:29.689Z,5.55
2022-08-26T10:33:31.430Z,6.13
2022-08-26T10:34:33.513Z,5.72
2022-08-26T10:35:37.518Z,6.05
2022-08-26T10:37:05.193Z,6.78
2022-08-26T10:38:11.568Z,5.75
2022-08-26T10:39:22.654Z,5.60
2022-08-26T10:40:29.195Z,5.72
2022-08-26T10:41:36.176Z,5.85
2022-08-26T10:42:42.584Z,5.28
2022-08-26T10:43:51.562Z,5.43
2022-08-26T10:44:58.805Z,5.45
2022-08-26T10:46:06.963Z,5.22
2022-08-26T10:47:16.281Z,5.63
2022-08-26T10:48:27.558Z,5.30
2022-08-26T10:49:38.039Z,5.32
2022-08-26T10:50:43.657Z,4.60
2022-08-26T10:51:58.086Z,4.68
2022-08-26T10:53:05.329Z,5.03
2022-08-26T10:54:14.989Z,5.13
2022-08-26T10:55:23.092Z,5.07
2022-08-26T10:56:36.778Z,4.35
2022-08-26T10:57:47.180Z,5.47
2022-08-26T10:58:57.966Z,5.20
2022-08-26T11:00:07.501Z,4.95
2022-08-26T11:01:17.840Z,5.25
2022-08-26T11:02:30.873Z,5.28
2022-08-26T11:03:41.775Z,5.03
2022-08-26T11:04:49.445Z,5.20
2022-08-26T11:06:20.084Z,5.13
2022-08-26T11:07:41.261Z,5.03
2022-08-26T11:08:46.199Z,5.15
2022-08-26T11:09:48.174Z,5.60
2022-08-26T11:10:59.279Z,5.28
2022-08-26T11:12:05.106Z,5.40
2022-08-26T11:13:11.708Z,6.00
2022-08-26T11:14:46.068Z,5.32
2022-08-26T11:17:04.242Z,6.32
2022-08-26T11:18:10.203Z,6.07
2022-08-26T11:19:59.033Z,5.75
2022-08-26T11:20:54.481Z,6.47
2022-08-26T11:22:04.387Z,6.40
2022-08-26T11:23:44.958Z,6.55
2022-08-26T11:25:12.961Z,6.57
2022-08-26T11:26:35.575Z,7.20
2022-08-26T11:28:03.327Z,7.03
2022-08-26T11:29:04.966Z,7.40
2022-08-26T11:30:47.362Z,6.65
2022-08-26T11:31:58.669Z,7.35
2022-08-26T11:33:02.315Z,6.82
2022-08-26T11:34:06.183Z,8.20
2022-08-26T11:35:10.072Z,7.15
2022-08-26T11:36:45.995Z,7.32
2022-08-26T11:37:50.052Z,7.13
2022-08-26T11:38:51.575Z,7.03
2022-08-26T11:39:57.277Z,7.28
2022-08-26T11:41:10.531Z,7.93
2022-08-26T11:42:27.771Z,6.95
2022-08-26T11:43:30.323Z,7.05
2022-08-26T11:44:38.699Z,6.80
2022-08-26T11:45:44.154Z,5.57
2022-08-26T11:46:53.767Z,6.10
2022-08-26T11:47:55.511Z,6.15
2022-08-26T11:49:03.789Z,5.68
2022-08-26T11:50:08.133Z,5.25
2022-08-26T11:51:11.758Z,5.70
2022-08-26T11:52:18.576Z,6.20
2022-08-26T11:53:23.908Z,5.82
2022-08-26T11:54:35.304Z,4.90
2022-08-26T11:55:43.174Z,4.25
2022-08-26T11:56:46.748Z,5.22
2022-08-26T11:57:53.172Z,5.72
2022-08-26T11:58:57.811Z,5.70
2022-08-26T12:00:00.156Z,5.30
2022-08-26T12:01:05.165Z,6.68
2022-08-26T12:02:15.157Z,7.10
2022-08-26T12:03:23.059Z,6.20
2022-08-26T12:04:31.522Z,6.32
2022-08-26T12:05:36.452Z,7.28
2022-08-26T12:06:47.500Z,7.85
2022-08-26T12:07:50.027Z,6.88
2022-08-26T12:08:57.511Z,7.80
2022-08-26T12:10:02.328Z,8.32
2022-08-26T12:11:06.253Z,7.70
2022-08-26T12:12:13.797Z,8.00
2022-08-26T12:13:22.088Z,8.00
2022-08-26T12:14:25.936Z,8.55
2022-08-26T12:15:31.893Z,8.27
2022-08-26T12:16:35.952Z,8.38
2022-08-26T12:17:38.033Z,8.15
2022-08-26T12:18:39.553Z,7.88
2022-08-26T12:19:42.835Z,8.00
2022-08-26T12:20:44.690Z,7.95
2022-08-26T12:21:48.802Z,7.57
2022-08-26T12:22:50.316Z,8.15
2022-08-26T12:23:55.057Z,7.72
2022-08-26T12:24:58.895Z,8.00
2022-08-26T12:26:07.154Z,7.80
2022-08-26T12:27:16.965Z,7.05
2022-08-26T12:28:18.872Z,7.22
2022-08-26T12:29:27.422Z,6.65
2022-08-26T12:30:29.006Z,6.80
2022-08-26T12:31:35.443Z,7.32
2022-08-26T12:32:39.339Z,6.03
2022-08-26T12:34:00.296Z,6.00
2022-08-26T12:36:17.811Z,6.53
2022-08-26T12:37:19.460Z,6.38
2022-08-26T12:38:22.299Z,5.68
2022-08-26T12:39:26.793Z,5.30
2022-08-26T12:40:33.749Z,5.47
2022-08-26T12:41:40.503Z,5.80
2022-08-26T12:42:42.325Z,5.13
2022-08-26T12:43:45.712Z,5.10
2022-08-26T12:44:53.191Z,5.30
2022-08-26T12:45:58.510Z,4.75
2022-08-26T12:47:06.160Z,4.78
2022-08-26T12:48:10.179Z,4.80
2022-08-26T12:49:11.940Z,5.82
2022-08-26T12:50:20.566Z,5.75
2022-08-26T12:51:25.544Z,5.47
2022-08-26T12:52:30.710Z,5.85
2022-08-26T12:53:34.442Z,5.50
2022-08-26T12:54:35.994Z,5.15
2022-08-26T12:55:41.539Z,5.30
2022-08-26T12:56:43.238Z,4.45
2022-08-26T12:57:44.831Z,4.50
2022-08-26T12:59:01.004Z,4.68
2022-08-26T13:00:28.737Z,5.28
2022-08-26T13:01:37.495Z,4.53
2022-08-26T13:02:39.063Z,3.55
2022-08-26T13:03:43.440Z,4.05
2022-08-26T13:04:45.026Z,4.50
2022-08-26T13:05:47.993Z,4.22
2022-08-26T13:06:49.479Z,4.00
2022-08-26T13:08:15.676Z,4.03
2022-08-26T13:09:30.345Z,4.95
2022-08-26T13:10:36.584Z,4.90
2022-08-26T13:11:58.941Z,4.97
2022-08-26T13:13:01.131Z,5.53
2022-08-26T13:14:07.558Z,4.30
2022-08-26T13:15:09.470Z,4.10
2022-08-26T13:16:11.643Z,4.28
2022-08-26T13:17:13.131Z,4.85
2022-08-26T13:18:14.615Z,4.70
2022-08-26T13:19:18.598Z,4.53
2022-08-26T13:20:20.226Z,3.80
2022-08-26T13:21:26.166Z,3.58
2022-08-26T13:22:27.680Z,3.35
2022-08-26T13:23:29.161Z,4.03
2022-08-26T13:24:33.999Z,3.90
2022-08-26T13:25:35.499Z,4.35
2022-08-26T13:26:37.228Z,4.63
2022-08-26T13:27:38.721Z,4.35
2022-08-26T13:28:40.245Z,3.40
2022-08-26T13:29:41.823Z,3.72
2022-08-26T13:30:47.645Z,4.43
2022-08-26T13:31:49.461Z,4.00
2022-08-26T13:32:57.082Z,4.10
2022-08-26T13:33:59.368Z,3.72
2022-08-26T13:35:05.499Z,4.20
2022-08-26T13:36:07.518Z,3.88
2022-08-26T13:37:10.335Z,4.07
2022-08-26T13:38:11.790Z,3.80
2022-08-26T13:39:21.087Z,3.53
2022-08-26T13:40:22.665Z,3.88
2022-08-26T13:41:29.586Z,3.63
2022-08-26T13:42:31.288Z,3.88
2022-08-26T13:43:32.830Z,4.05
2022-08-26T13:44:34.357Z,4.35
2022-08-26T13:45:35.940Z,3.13
2022-08-26T13:46:37.834Z,4.05
2022-08-26T13:47:39.450Z,3.30
2022-08-26T13:48:41.086Z,3.47
2022-08-26T13:49:46.266Z,3.80
2022-08-26T13:50:47.822Z,2.80
2022-08-26T13:51:49.340Z,3.67
2022-08-26T13:52:52.153Z,3.90
2022-08-26T13:53:54.239Z,3.05
2022-08-26T13:54:55.686Z,2.53
2022-08-26T13:55:57.808Z,3.25
2022-08-26T13:56:59.308Z,3.45
2022-08-26T13:58:00.841Z,3.70
2022-08-26T13:59:02.366Z,3.40
2022-08-26T14:00:05.251Z,3.78
2022-08-26T14:01:07.186Z,4.10
2022-08-26T14:02:08.707Z,3.50
2022-08-26T14:03:13.410Z,3.55
2022-08-26T14:04:15.119Z,3.45
2022-08-26T14:05:16.826Z,4.00
2022-08-26T14:06:18.374Z,4.13
2022-08-26T14:07:19.842Z,4.60
2022-08-26T14:08:22.833Z,3.95